Lynch Station, VA (24571)

9:24 PM EDT on September 02, 2014 (GMT -0400)
Altavista | Change Station
CLOSE
Current Station
Personal Weather Station
Location: Altavista, VA
Elevation: 591 ft
Nearby Weather Stations

Elev 591 ft 37.11 °N, 79.29 °W | Updated 6 minutes ago

Clear
Clear
77.7 °F
Feels Like 80 °F
N
0.0
Wind Variable Wind from WSW

Today
High -- | Low -- °F
--% Chance of Precip.
Yesterday
High -- | Low -- °F
Precip. -- in
6:48 AM 7:44 PM
First Quarter, 57% visible
Pressure 29.96 in
Visibility 10.0 miles
Clouds Few 12000 ft
Heat Index 80 °F
Dew Point 73 °F
Humidity 86%
Rainfall 0.00 in
Snow Depth Not available.
UV 0 out of 12
Pollen 10.50 out of 12
Air Quality Not available.
Flu Activity Not available.
METAR KLYH 030054Z 00000KT 10SM FEW120 24/22 A2998 RMK AO2 LTG DSNT N AND NW SLP143 T02390222

More Conditions Fewer Conditions

Pressure 29.96 in
Visibility 10.0 miles
Clouds Few 12000 ft
Heat Index 80 °F
Dew Point 73 °F
Humidity 86%
Rainfall 0.00 in
Snow Depth Not available.
UV 0 out of 12
Pollen 10.50 out of 12
Air Quality Not available.
Flu Activity Not available.
METAR KLYH 030054Z 00000KT 10SM FEW120 24/22 A2998 RMK AO2 LTG DSNT N AND NW SLP143 T02390222

More Conditions Fewer Conditions

10-Day Weather Forecast

Almanac

Astronomy

Sep. 02, 2014 Rise Set
Actual Time 6:48 AM EDT 7:44 PM EDT
Civil Twilight 6:22 AM EDT 8:11 PM EDT
Nautical Twilight 5:50 AM EDT 8:42 PM EDT
Astronomical Twilight 5:18 AM EDT 9:15 PM EDT
Moon 2:21 PM EDT (9/2) No Moon Set
Length of Visible Light 13h 48m
Length of Day
12h 55m
Tomorrow will be 2m 17s shorter.
First Quarter, 57% of the Moon is Illuminated
Today
First Quarter
Sep 8
Full
Sep 15
Last Quarter
Sep 24
New
Oct 1
First Quarter

Today's Extremes

State Highs State Lows

Community

WunderPhotos

Upload Photos

1,749,826 photos uploaded!

Nearby

Snow Depth

Station Depth Elevation
No new snow has been reported.

Earthquake Activity

City Distance Mag. Time & Date
No recent earthquake activity has been reported nearby.
Minimum magnitude displayed is 2.5.

Coastal Water Temperatures

Place Temperature
No Stations Reporting

Nearby Weather Stations